Time;durP1;ratioP1;P1;durP2;ratioP2;P2;SDS_P1;SDS_P2;PMS_P1;PMS_P2;Temp;Humidity;BMP_temperature;BMP_pressure;BME280_temperature;BME280_humidity;BME280_pressure;Samples;Min_cycle;Max_cycle;Signal;HPM_P1;HPM_P2
2022/07/24 00:01:35;;;;;;;12.75;6.97;;;;;;;20.05;75.75;93267.78;2025299;70;20156;-75
2022/07/24 00:04:02;;;;;;;12.52;6.68;;;;;;;19.88;76.78;93282.88;2022119;71;20145;-74
2022/07/24 00:06:27;;;;;;;13.35;6.80;;;;;;;19.96;76.18;93286.03;2022139;70;20157;-75
2022/07/24 00:08:53;;;;;;;12.05;6.75;;;;;;;19.99;75.82;93286.84;2023447;70;20180;-76
2022/07/24 00:11:19;;;;;;;10.90;6.90;;;;;;;19.92;76.57;93300.19;2025068;70;20159;-75
2022/07/24 00:13:45;;;;;;;11.10;6.00;;;;;;;19.95;75.88;93286.72;2026403;70;20664;-76
2022/07/24 00:16:14;;;;;;;9.82;6.50;;;;;;;19.88;75.81;93279.31;2026039;70;20184;-75
2022/07/24 00:18:40;;;;;;;14.02;6.55;;;;;;;19.86;75.21;93290.66;2023585;70;20212;-74
2022/07/24 00:21:13;;;;;;;15.50;6.60;;;;;;;19.87;75.45;93283.56;2023701;70;20180;-75
2022/07/24 00:23:44;;;;;;;7.95;6.20;;;;;;;19.74;76.09;93285.25;2025470;70;20192;-76
2022/07/24 00:26:18;;;;;;;10.43;6.25;;;;;;;19.78;75.79;93273.97;2021902;70;20196;-74
2022/07/24 00:28:44;;;;;;;;;;;;;;;19.63;76.53;93278.44;2025119;70;20236;-75
2022/07/24 00:31:25;;;;;;;9.48;6.53;;;;;;;19.66;75.48;93270.69;2023348;70;20195;-75
2022/07/24 00:33:55;;;;;;;10.50;6.40;;;;;;;19.80;74.59;93271.91;2025913;70;20161;-75
2022/07/24 00:36:21;;;;;;;14.15;7.20;;;;;;;19.60;75.92;93264.72;2024496;70;20153;-75
2022/07/24 00:38:47;;;;;;;12.93;6.88;;;;;;;19.70;75.01;93265.84;2026692;70;20237;-75
2022/07/24 00:41:12;;;;;;;11.10;6.90;;;;;;;19.67;75.11;93264.31;2024423;70;20184;-74
2022/07/24 00:44:04;;;;;;;11.23;6.70;;;;;;;19.56;75.61;93262.44;2025277;70;20165;-75
2022/07/24 00:46:37;;;;;;;10.18;6.13;;;;;;;19.54;75.58;93263.09;2025850;70;20518;-75
2022/07/24 00:49:06;;;;;;;12.15;6.43;;;;;;;19.51;75.55;93270.13;2024665;70;20149;-76
2022/07/24 00:51:33;;;;;;;8.45;6.82;;;;;;;19.43;75.93;93269.13;2026576;70;20221;-76
2022/07/24 00:53:59;;;;;;;10.30;6.45;;;;;;;19.46;75.40;93267.78;2019595;70;20156;-76
2022/07/24 00:56:25;;;;;;;14.60;6.32;;;;;;;19.43;75.78;93264.13;2026401;70;20148;-76
2022/07/24 00:58:51;;;;;;;10.80;6.57;;;;;;;19.42;75.86;93262.66;2024850;70;20207;-76
2022/07/24 01:01:20;;;;;;;8.50;5.82;;;;;;;19.47;75.39;93269.25;2024933;70;20217;-75
2022/07/24 01:03:46;;;;;;;12.00;7.68;;;;;;;19.38;75.64;93265.38;2022889;71;20191;-74
2022/07/24 01:06:13;;;;;;;12.30;7.07;;;;;;;19.03;78.00;93269.03;2026046;70;20188;-74
2022/07/24 01:08:40;;;;;;;14.75;6.55;;;;;;;19.32;76.27;93267.97;2024030;70;20144;-75
2022/07/24 01:11:06;;;;;;;9.63;6.50;;;;;;;19.19;75.87;93268.91;2024971;70;20283;-73
2022/07/24 01:13:39;;;;;;;8.73;5.77;;;;;;;19.30;75.17;93271.50;2026171;70;20165;-74
2022/07/24 01:16:06;;;;;;;11.60;6.70;;;;;;;19.19;75.98;93280.31;2026076;70;20152;-74
2022/07/24 01:18:34;;;;;;;8.77;6.05;;;;;;;19.27;75.29;93272.81;2025043;70;20161;-74
2022/07/24 01:21:00;;;;;;;9.77;6.68;;;;;;;19.21;76.16;93281.16;2027526;70;20165;-74
2022/07/24 01:23:26;;;;;;;11.27;6.55;;;;;;;19.21;75.69;93278.28;2025140;70;20658;-74
2022/07/24 01:25:51;;;;;;;8.00;6.30;;;;;;;19.24;75.14;93284.81;2022694;70;20276;-75
2022/07/24 01:28:17;;;;;;;9.50;6.45;;;;;;;19.14;76.40;93270.16;2022365;71;20318;-74
2022/07/24 01:30:43;;;;;;;8.68;6.97;;;;;;;19.29;75.07;93280.75;2026488;70;20238;-74
2022/07/24 01:33:09;;;;;;;9.57;7.10;;;;;;;19.18;75.98;93273.88;2024206;70;20732;-73
2022/07/24 01:35:35;;;;;;;10.38;6.80;;;;;;;19.25;74.17;93272.75;2026038;70;20192;-73
2022/07/24 01:38:00;;;;;;;10.32;6.38;;;;;;;19.05;75.75;93277.66;2022034;71;20264;-74
2022/07/24 01:40:26;;;;;;;8.98;6.88;;;;;;;19.09;75.36;93274.97;2025375;70;20185;-74
2022/07/24 01:42:52;;;;;;;10.27;7.07;;;;;;;19.09;75.34;93274.25;2023930;70;20184;-75
2022/07/24 01:45:18;;;;;;;9.75;6.47;;;;;;;18.98;76.62;93273.13;2026162;70;20165;-73
2022/07/24 01:47:45;;;;;;;8.55;6.60;;;;;;;19.06;75.94;93267.75;2025916;70;20173;-74
2022/07/24 01:50:11;;;;;;;13.80;7.10;;;;;;;18.99;76.71;93272.47;2023932;70;20655;-74
2022/07/24 01:52:37;;;;;;;9.05;7.10;;;;;;;18.90;77.10;93282.09;2020797;71;20525;-74
2022/07/24 01:55:07;;;;;;;7.93;7.10;;;;;;;18.96;75.99;93273.03;2026445;70;20153;-74
2022/07/24 01:57:36;;;;;;;12.27;6.57;;;;;;;19.01;76.17;93269.72;2025269;70;20152;-74
2022/07/24 02:00:08;;;;;;;13.00;7.60;;;;;;;18.97;75.86;93263.84;2025828;70;20155;-74
2022/07/24 02:02:39;;;;;;;9.45;7.38;;;;;;;18.97;76.33;93266.69;2024708;70;20249;-74
2022/07/24 02:05:06;;;;;;;11.02;6.95;;;;;;;18.99;75.54;93263.91;2026609;70;20325;-74
2022/07/24 02:07:32;;;;;;;10.88;7.40;;;;;;;18.95;74.95;93260.16;2024724;70;20160;-73
2022/07/24 02:09:58;;;;;;;13.18;7.13;;;;;;;18.93;76.58;93263.69;2022240;70;20194;-74
2022/07/24 02:12:24;;;;;;;9.52;6.88;;;;;;;19.09;74.64;93257.84;2024760;70;20141;-75
2022/07/24 02:14:49;;;;;;;10.98;7.50;;;;;;;19.04;75.35;93248.41;2026815;70;20260;-75
2022/07/24 02:17:15;;;;;;;10.45;7.35;;;;;;;19.03;75.14;93249.06;2023992;70;20226;-75
2022/07/24 02:19:41;;;;;;;10.55;7.80;;;;;;;18.98;75.96;93256.75;2025437;70;20148;-74
2022/07/24 02:22:07;;;;;;;11.07;7.35;;;;;;;19.01;75.86;93261.16;2021849;71;20261;-75
2022/07/24 02:24:33;;;;;;;15.13;7.65;;;;;;;19.12;74.02;93256.53;2026008;70;20148;-74
2022/07/24 02:27:00;;;;;;;9.38;7.80;;;;;;;19.21;73.79;93257.59;2020329;70;20145;-75
2022/07/24 02:29:26;;;;;;;11.73;7.55;;;;;;;19.12;74.46;93252.97;2024676;70;20226;-75
2022/07/24 02:31:52;;;;;;;13.15;7.80;;;;;;;19.16;75.26;93253.13;2022099;71;20217;-75
2022/07/24 02:34:18;;;;;;;9.57;7.40;;;;;;;19.20;74.00;93253.28;2026058;70;20506;-75
2022/07/24 02:36:43;;;;;;;9.00;7.75;;;;;;;19.02;75.59;93248.34;2021154;71;20196;-75
2022/07/24 02:39:09;;;;;;;10.65;7.47;;;;;;;19.02;75.64;93267.59;2026032;70;20609;-74
2022/07/24 02:41:35;;;;;;;11.65;7.43;;;;;;;19.00;76.30;93268.22;2026308;70;20233;-75
2022/07/24 02:44:00;;;;;;;12.25;7.20;;;;;;;19.15;74.53;93265.91;2025725;71;20177;-75
2022/07/24 02:46:26;;;;;;;13.27;8.30;;;;;;;18.99;76.34;93263.91;2024974;71;20624;-74
2022/07/24 02:48:51;;;;;;;10.82;8.18;;;;;;;19.03;75.35;93269.78;2025772;71;20169;-74
2022/07/24 02:51:17;;;;;;;10.73;8.05;;;;;;;18.94;76.38;93272.97;2026684;70;20248;-75
2022/07/24 02:53:43;;;;;;;11.30;7.78;;;;;;;18.94;76.20;93275.81;2025351;71;20525;-74
2022/07/24 02:56:08;;;;;;;10.50;7.75;;;;;;;19.04;76.26;93270.50;2025562;71;20184;-75
2022/07/24 02:58:34;;;;;;;10.30;7.75;;;;;;;19.07;76.12;93272.06;2025027;71;20157;-74
2022/07/24 03:01:00;;;;;;;14.68;9.13;;;;;;;19.07;76.58;93266.34;2024373;71;20343;-74
2022/07/24 03:03:26;;;;;;;14.23;8.55;;;;;;;19.15;74.58;93268.75;2026473;70;20155;-74
2022/07/24 03:05:52;;;;;;;11.73;7.38;;;;;;;19.05;75.34;93277.66;2025534;71;20157;-74
2022/07/24 03:08:17;;;;;;;11.65;8.23;;;;;;;19.01;77.04;93272.56;2025391;70;20193;-74
2022/07/24 03:10:43;;;;;;;10.20;8.35;;;;;;;19.04;76.86;93270.50;2023094;71;20257;-74
2022/07/24 03:13:09;;;;;;;9.57;7.63;;;;;;;19.12;76.43;93261.53;2024570;71;20208;-74
2022/07/24 03:15:34;;;;;;;9.27;7.63;;;;;;;18.96;77.19;93265.19;2026197;71;20184;-73
2022/07/24 03:18:01;;;;;;;11.00;7.65;;;;;;;19.10;76.00;93267.88;2025632;71;20652;-75
2022/07/24 03:20:28;;;;;;;13.25;8.50;;;;;;;19.00;76.34;93270.34;2022766;71;20145;-74
2022/07/24 03:22:54;;;;;;;13.15;8.60;;;;;;;19.01;76.25;93269.72;2024701;70;20149;-74
2022/07/24 03:25:21;;;;;;;12.75;8.15;;;;;;;18.99;75.23;93274.59;2026994;70;20196;-74
2022/07/24 03:27:49;;;;;;;13.35;8.25;;;;;;;18.87;76.45;93269.13;2025825;70;20534;-74
2022/07/24 03:30:17;;;;;;;9.60;8.18;;;;;;;18.99;74.88;93269.59;2026845;70;20244;-74
2022/07/24 03:32:44;;;;;;;14.13;8.73;;;;;;;18.96;76.58;93262.34;2025244;70;20152;-75
2022/07/24 03:35:10;;;;;;;11.63;8.25;;;;;;;19.04;74.81;93265.53;2027055;70;20532;-75
2022/07/24 03:37:37;;;;;;;12.00;8.38;;;;;;;19.00;76.49;93268.22;2024918;70;20233;-75
2022/07/24 03:40:04;;;;;;;11.60;8.18;;;;;;;19.16;73.72;93258.81;2026009;70;20201;-74
2022/07/24 03:42:30;;;;;;;12.55;8.35;;;;;;;19.12;75.31;93265.09;2026632;70;20160;-74
2022/07/24 03:44:55;;;;;;;11.68;8.25;;;;;;;19.09;74.15;93260.69;2024917;70;20168;-74
2022/07/24 03:47:21;;;;;;;12.48;8.77;;;;;;;19.03;75.22;93260.47;2026987;70;20165;-74
2022/07/24 03:49:47;;;;;;;10.77;8.55;;;;;;;19.08;75.09;93259.25;2025620;70;20336;-74
2022/07/24 03:52:12;;;;;;;12.70;8.55;;;;;;;18.98;75.84;93264.56;2025740;70;20157;-75
2022/07/24 03:54:38;;;;;;;12.20;8.43;;;;;;;18.86;77.43;93269.78;2026670;70;20160;-74
2022/07/24 03:57:04;;;;;;;11.57;8.90;;;;;;;19.01;75.25;93263.25;2021248;70;20520;-75
2022/07/24 03:59:30;;;;;;;13.40;8.85;;;;;;;19.05;75.37;93269.09;2024745;70;20520;-73
2022/07/24 04:01:55;;;;;;;12.52;9.48;;;;;;;18.91;76.27;93269.28;2020662;70;20525;-74
2022/07/24 04:04:21;;;;;;;13.00;8.98;;;;;;;18.89;75.76;93269.22;2025550;70;20156;-75
2022/07/24 04:06:47;;;;;;;16.88;10.00;;;;;;;18.82;77.31;93269.63;2027224;70;20163;-74
2022/07/24 04:09:13;;;;;;;13.50;8.70;;;;;;;18.90;75.57;93279.25;2024756;70;20662;-74
2022/07/24 04:11:38;;;;;;;12.52;8.88;;;;;;;18.95;76.38;93277.28;2026245;70;20161;-74
2022/07/24 04:14:04;;;;;;;14.07;9.13;;;;;;;18.88;76.37;93275.59;2026116;70;20490;-75
2022/07/24 04:16:30;;;;;;;13.05;8.27;;;;;;;18.83;76.67;93274.69;2025330;70;20149;-74
2022/07/24 04:18:55;;;;;;;12.13;8.90;;;;;;;18.87;75.87;93276.97;2025365;70;20238;-74
2022/07/24 04:21:21;;;;;;;13.13;9.07;;;;;;;18.83;76.64;93280.41;2026818;70;20161;-74
2022/07/24 04:23:48;;;;;;;12.32;8.57;;;;;;;18.93;75.33;93280.06;2025779;70;20153;-74
2022/07/24 04:26:13;;;;;;;11.18;8.55;;;;;;;18.93;75.92;93291.47;2025675;70;20188;-75
2022/07/24 04:28:41;;;;;;;12.10;8.80;;;;;;;19.00;74.81;93282.47;2025232;70;20168;-74
2022/07/24 04:31:08;;;;;;;13.90;8.55;;;;;;;18.85;76.70;93286.19;2023503;70;20164;-75
2022/07/24 04:33:34;;;;;;;13.05;8.73;;;;;;;18.78;76.49;93285.22;2025287;70;20152;-74
2022/07/24 04:35:59;;;;;;;14.25;8.93;;;;;;;18.80;77.32;93281.69;2022165;71;20234;-74
2022/07/24 04:38:25;;;;;;;13.55;8.73;;;;;;;18.93;76.22;93266.53;2025115;70;20621;-75
2022/07/24 04:40:51;;;;;;;12.98;9.10;;;;;;;18.78;76.99;93276.66;2026926;70;20237;-75
2022/07/24 04:43:17;;;;;;;13.43;9.85;;;;;;;18.90;76.10;93269.94;2024689;70;20269;-75
2022/07/24 04:45:43;;;;;;;13.57;10.10;;;;;;;18.92;76.09;93278.56;2025139;70;20173;-74
2022/07/24 04:48:08;;;;;;;11.57;9.07;;;;;;;18.96;75.66;93285.19;2025228;70;20577;-74
2022/07/24 04:50:34;;;;;;;11.73;8.57;;;;;;;18.97;75.11;93274.53;2024689;70;20145;-75
2022/07/24 04:52:59;;;;;;;13.25;9.05;;;;;;;18.97;75.75;93286.66;2026992;70;20659;-75
2022/07/24 04:55:25;;;;;;;11.45;8.68;;;;;;;19.02;75.05;93279.72;2024977;70;20141;-75
2022/07/24 04:57:51;;;;;;;10.82;9.32;;;;;;;18.93;76.94;93282.91;2026097;70;20548;-75
2022/07/24 05:00:17;;;;;;;11.77;9.00;;;;;;;18.99;77.22;93283.88;2024159;70;20153;-74
2022/07/24 05:02:45;;;;;;;13.48;9.10;;;;;;;19.05;75.58;93283.38;2025857;70;20233;-74
2022/07/24 05:05:11;;;;;;;11.13;8.68;;;;;;;19.08;76.24;93284.19;2024461;71;20180;-75
2022/07/24 05:07:38;;;;;;;10.93;8.63;;;;;;;19.03;76.27;93289.75;2024007;71;20153;-74
2022/07/24 05:10:05;;;;;;;13.82;9.38;;;;;;;19.10;75.65;93284.25;2024045;71;20160;-75
2022/07/24 05:12:31;;;;;;;11.25;9.18;;;;;;;19.09;75.10;93289.25;2024023;71;20541;-75
2022/07/24 05:14:57;;;;;;;12.77;9.65;;;;;;;19.20;73.75;93279.69;2024187;71;20157;-74
2022/07/24 05:17:22;;;;;;;11.07;9.15;;;;;;;19.12;74.67;93292.91;2024213;71;20197;-74
2022/07/24 05:19:48;;;;;;;12.00;9.63;;;;;;;19.16;74.81;93290.94;2024146;71;20144;-74
2022/07/24 05:22:13;;;;;;;14.27;9.20;;;;;;;19.19;74.89;93288.91;2024131;71;20207;-74
2022/07/24 05:24:39;;;;;;;12.65;9.52;;;;;;;19.21;75.51;93298.28;2024138;71;20214;-75
2022/07/24 05:27:06;;;;;;;13.55;9.10;;;;;;;19.16;76.14;93285.25;2024015;71;20515;-75
2022/07/24 05:29:31;;;;;;;12.23;8.95;;;;;;;19.19;76.40;93281.06;2024119;71;20558;-75
2022/07/24 05:31:57;;;;;;;10.52;8.90;;;;;;;19.22;76.32;93284.75;2023790;70;20233;-74
2022/07/24 05:34:23;;;;;;;11.02;9.02;;;;;;;19.30;75.26;93285.78;2023779;70;20157;-74
2022/07/24 05:36:50;;;;;;;11.85;9.60;;;;;;;19.28;76.14;93288.53;2023960;70;20229;-78
2022/07/24 05:39:16;;;;;;;19.60;11.63;;;;;;;19.04;75.99;93285.50;2014833;71;20255;-75
2022/07/24 05:41:41;;;;;;;14.75;10.93;;;;;;;18.95;77.65;93285.84;2023060;71;20153;-75
2022/07/24 05:44:07;;;;;;;13.95;9.85;;;;;;;19.13;76.40;93280.09;2024278;71;20153;-75
2022/07/24 05:46:33;;;;;;;14.77;10.50;;;;;;;19.22;77.06;93285.47;2024004;70;20183;-74
2022/07/24 05:48:58;;;;;;;16.50;10.10;;;;;;;19.22;77.71;93284.75;2023066;70;20222;-73
2022/07/24 05:51:25;;;;;;;15.00;9.57;;;;;;;19.37;76.72;93280.28;2021283;71;20157;-74
2022/07/24 05:53:51;;;;;;;15.68;9.65;;;;;;;19.49;76.23;93281.47;2021655;71;20184;-74
2022/07/24 05:56:16;;;;;;;19.00;10.20;;;;;;;19.49;77.23;93283.59;2022510;71;20157;-75
2022/07/24 05:58:42;;;;;;;13.85;8.70;;;;;;;19.57;76.28;93283.91;2024208;71;20177;-75
2022/07/24 06:01:08;;;;;;;12.80;9.25;;;;;;;19.64;76.92;93284.88;2024455;71;20159;-74
2022/07/24 06:03:33;;;;;;;10.73;9.13;;;;;;;19.69;77.13;93286.50;2025055;71;20194;-74
2022/07/24 06:05:59;;;;;;;12.48;9.13;;;;;;;19.68;74.30;93282.91;2016784;71;20632;-76
2022/07/24 06:08:25;;;;;;;14.55;9.88;;;;;;;19.65;76.31;93284.22;2024694;71;20149;-76
2022/07/24 06:10:50;;;;;;;13.02;9.35;;;;;;;19.69;76.51;93290.06;2023404;71;20205;-76
2022/07/24 06:13:16;;;;;;;10.27;8.60;;;;;;;19.84;76.09;93282.00;2024389;70;20244;-80
2022/07/24 06:15:42;;;;;;;12.32;9.13;;;;;;;19.88;76.03;93276.44;2024907;71;20153;-75
2022/07/24 06:18:07;;;;;;;15.52;9.80;;;;;;;19.84;75.10;93285.63;2024349;71;20161;-73
2022/07/24 06:20:33;;;;;;;11.18;9.40;;;;;;;20.02;75.11;93286.28;2024240;71;20153;-73
2022/07/24 06:22:58;;;;;;;11.65;9.20;;;;;;;20.10;76.01;93285.81;2022625;71;20630;-74
2022/07/24 06:25:24;;;;;;;14.85;8.90;;;;;;;20.17;75.21;93278.19;2022754;71;20192;-75
2022/07/24 06:27:51;;;;;;;11.32;8.70;;;;;;;20.17;76.97;93273.19;2022901;71;20411;-74
2022/07/24 06:30:21;;;;;;;15.77;9.10;;;;;;;20.22;76.05;93279.78;2022226;71;20261;-75
2022/07/24 06:32:48;;;;;;;17.30;9.00;;;;;;;20.30;76.28;93277.94;2022047;70;20145;-74
2022/07/24 06:35:14;;;;;;;12.45;9.07;;;;;;;20.38;75.70;93276.72;2021048;71;20172;-73
2022/07/24 06:37:40;;;;;;;15.35;8.35;;;;;;;20.50;73.40;93280.75;2020516;71;20153;-75
2022/07/24 06:40:07;;;;;;;13.73;9.68;;;;;;;20.60;73.38;93274.63;2024299;71;20155;-74
2022/07/24 06:42:33;;;;;;;13.07;9.25;;;;;;;20.57;76.97;93278.81;2024288;71;20244;-75
2022/07/24 06:44:58;;;;;;;12.70;9.00;;;;;;;20.73;75.33;93270.06;2024218;71;20323;-75
2022/07/24 06:47:25;;;;;;;12.02;9.13;;;;;;;20.87;75.16;93267.63;2020474;71;20506;-76
2022/07/24 06:49:53;;;;;;;11.95;9.00;;;;;;;21.02;76.32;93271.66;2023781;71;20172;-75
2022/07/24 06:52:19;;;;;;;12.90;8.63;;;;;;;21.17;73.25;93270.72;2023653;71;20148;-75
2022/07/24 06:54:45;;;;;;;29.50;9.07;;;;;;;21.22;69.03;93271.56;2023758;71;20164;-75
2022/07/24 06:57:11;;;;;;;12.77;8.63;;;;;;;21.41;71.84;93267.16;2024599;70;20199;-75
2022/07/24 06:59:37;;;;;;;11.50;8.23;;;;;;;21.44;71.76;93262.94;2024092;71;20795;-75
2022/07/24 07:02:02;;;;;;;14.88;8.90;;;;;;;21.50;72.18;93255.25;2023319;71;20152;-75
2022/07/24 07:04:28;;;;;;;15.18;9.63;;;;;;;21.52;73.29;93249.56;2022751;71;20248;-74
2022/07/24 07:06:54;;;;;;;11.05;9.00;;;;;;;21.62;73.48;93252.00;2024398;71;20256;-76
2022/07/24 07:09:22;;;;;;;11.45;9.20;;;;;;;21.77;72.80;93251.00;2024923;71;20168;-73
2022/07/24 07:11:48;;;;;;;12.35;9.48;;;;;;;21.87;73.12;93249.81;2024613;71;20141;-75
2022/07/24 07:14:13;;;;;;;10.20;8.80;;;;;;;21.94;71.74;93257.16;2024537;71;20141;-77
2022/07/24 07:16:39;;;;;;;11.18;8.88;;;;;;;21.93;69.95;93252.84;2024836;71;20161;-74
2022/07/24 07:19:05;;;;;;;14.02;9.90;;;;;;;21.96;69.77;93246.50;2024580;71;20181;-74
2022/07/24 07:21:31;;;;;;;10.35;9.18;;;;;;;22.01;69.30;93242.34;2024506;71;20267;-75
2022/07/24 07:23:56;;;;;;;34.88;22.08;;;;;;;22.12;69.74;93245.50;2023751;70;20189;-73
2022/07/24 07:26:22;;;;;;;25.08;17.88;;;;;;;22.18;69.81;93246.41;2023242;70;20159;-74
2022/07/24 07:28:48;;;;;;;17.75;13.77;;;;;;;22.20;69.87;93246.44;2022903;70;20362;-74
2022/07/24 07:31:14;;;;;;;19.02;11.80;;;;;;;22.25;69.75;93248.00;2022594;71;20519;-76
2022/07/24 07:33:39;;;;;;;15.38;9.88;;;;;;;22.41;70.36;93250.56;2024126;71;20244;-72
2022/07/24 07:36:05;;;;;;;11.60;9.63;;;;;;;22.41;70.97;93241.97;2023969;71;20156;-74
2022/07/24 07:38:31;;;;;;;14.35;9.95;;;;;;;22.48;71.59;93239.97;2024493;71;20193;-72
2022/07/24 07:40:56;;;;;;;16.85;9.70;;;;;;;22.56;72.22;93235.16;2021417;71;20245;-75
2022/07/24 07:43:22;;;;;;;12.40;9.68;;;;;;;22.74;70.61;93232.03;2022523;71;20177;-74
2022/07/24 07:45:50;;;;;;;13.05;9.73;;;;;;;22.79;69.76;93236.44;2019862;71;20600;-73
2022/07/24 07:48:17;;;;;;;10.32;9.23;;;;;;;22.77;67.88;93238.53;2023104;71;20262;-74
2022/07/24 07:50:42;;;;;;;11.57;9.40;;;;;;;22.90;66.81;93240.31;2019221;71;20185;-74
2022/07/24 07:53:08;;;;;;;10.57;9.43;;;;;;;23.07;66.48;93242.13;2023703;71;20242;-74
2022/07/24 07:55:34;;;;;;;12.13;9.77;;;;;;;23.39;66.92;93246.41;2024641;71;20255;-75
2022/07/24 07:58:00;;;;;;;11.32;9.90;;;;;;;23.63;65.75;93234.72;2026397;70;20604;-74
2022/07/24 08:00:26;;;;;;;10.15;9.13;;;;;;;23.97;65.33;93232.56;2024628;71;20161;-75
2022/07/24 08:02:52;;;;;;;10.18;8.55;;;;;;;24.28;65.36;93239.63;2024639;71;20180;-75
2022/07/24 08:05:18;;;;;;;12.93;8.48;;;;;;;24.63;64.96;93236.63;2022601;71;20532;-74
2022/07/24 08:07:43;;;;;;;11.82;8.80;;;;;;;24.97;64.48;93228.56;2024559;71;20167;-74
2022/07/24 08:10:09;;;;;;;11.68;8.88;;;;;;;25.29;63.35;93230.47;2024297;71;20157;-75
2022/07/24 08:12:35;;;;;;;11.23;8.80;;;;;;;25.27;57.78;93222.53;2024449;71;20633;-74
2022/07/24 08:15:01;;;;;;;10.50;9.40;;;;;;;25.57;58.89;93221.50;2024423;71;20159;-74
2022/07/24 08:17:27;;;;;;;10.20;8.80;;;;;;;25.60;59.85;93217.19;2024203;71;20167;-75
2022/07/24 08:19:53;;;;;;;11.52;9.63;;;;;;;25.72;56.22;93222.41;2024190;71;20264;-75
2022/07/24 08:22:19;;;;;;;11.00;9.25;;;;;;;25.68;56.05;93217.31;2024385;71;20504;-75
2022/07/24 08:24:44;;;;;;;10.48;9.00;;;;;;;26.07;54.08;93224.28;2024450;71;20207;-75
2022/07/24 08:27:10;;;;;;;10.52;9.02;;;;;;;26.31;55.66;93218.03;2023895;71;20157;-75
2022/07/24 08:29:35;;;;;;;10.05;8.70;;;;;;;26.69;55.74;93211.19;2023605;71;20217;-76
2022/07/24 08:32:01;;;;;;;9.40;8.43;;;;;;;26.85;53.65;93213.50;2023863;71;20264;-76
2022/07/24 08:34:27;;;;;;;11.35;8.68;;;;;;;27.11;55.00;93218.75;2024575;71;20161;-75
2022/07/24 08:36:52;;;;;;;11.02;8.90;;;;;;;28.19;50.72;93215.72;2024345;71;20180;-75
2022/07/24 08:39:18;;;;;;;10.85;8.38;;;;;;;28.66;49.89;93218.72;2022706;71;20248;-75
2022/07/24 08:41:44;;;;;;;9.65;8.23;;;;;;;28.49;48.99;93215.78;2023645;71;20534;-75
2022/07/24 08:44:10;;;;;;;8.73;7.93;;;;;;;29.15;46.60;93207.19;2024142;71;20149;-76
2022/07/24 08:46:41;;;;;;;11.85;8.40;;;;;;;27.57;49.41;93206.03;2022406;71;20160;-75
2022/07/24 08:49:10;;;;;;;10.07;8.82;;;;;;;27.16;51.31;93210.84;2023292;71;20165;-76
2022/07/24 08:51:38;;;;;;;10.10;9.00;;;;;;;27.32;51.49;93208.78;2024187;71;20585;-76
2022/07/24 08:54:04;;;;;;;10.57;9.10;;;;;;;27.91;51.05;93210.56;2024202;71;20145;-76
2022/07/24 08:56:33;;;;;;;10.77;9.10;;;;;;;28.53;50.09;93212.91;2024417;70;20149;-76
2022/07/24 08:59:00;;;;;;;10.25;9.13;;;;;;;28.41;51.16;93206.38;2024236;71;20201;-76
2022/07/24 09:01:26;;;;;;;10.80;9.57;;;;;;;28.33;51.05;93209.97;2020634;71;20150;-76
2022/07/24 09:03:52;;;;;;;11.80;9.20;;;;;;;29.18;49.44;93205.69;2024108;71;20173;-76
2022/07/24 09:06:18;;;;;;;11.38;9.38;;;;;;;28.17;48.02;93213.53;2024222;71;20239;-76
2022/07/24 09:08:58;;;;;;;9.55;8.55;;;;;;;28.85;49.99;93202.78;2020796;71;20184;-76
2022/07/24 09:11:24;;;;;;;9.77;8.77;;;;;;;29.12;48.19;93200.66;2020860;71;20256;-77
2022/07/24 09:16:36;;;;;;;9.55;8.32;;;;;;;29.84;48.55;93195.44;2024257;71;20167;-77
2022/07/24 09:19:08;;;;;;;12.32;8.95;;;;;;;29.26;45.33;93191.19;2024439;71;20546;-77
2022/07/24 09:21:35;;;;;;;8.77;7.88;;;;;;;29.51;45.11;93189.00;2024181;71;20149;-77
2022/07/24 09:24:15;;;;;;;9.98;7.72;;;;;;;29.40;44.36;93184.66;2024352;71;20252;-77
2022/07/24 09:26:46;;;;;;;8.85;7.78;;;;;;;29.94;44.19;93177.25;2024214;71;20160;-76
2022/07/24 09:29:13;;;;;;;9.02;8.10;;;;;;;29.49;43.58;93174.47;2024357;71;20169;-77
2022/07/24 09:31:58;;;;;;;9.00;8.05;;;;;;;29.40;45.02;93170.16;2024370;71;20240;-77
2022/07/24 09:34:26;;;;;;;10.43;8.70;;;;;;;29.84;43.13;93166.41;2024350;71;20206;-76
2022/07/24 09:37:04;;;;;;;10.02;8.80;;;;;;;29.28;44.03;93162.94;2024172;71;20176;-76
2022/07/24 09:39:32;;;;;;;9.70;8.50;;;;;;;30.17;44.22;93157.56;2020777;71;20142;-76
2022/07/24 09:41:58;;;;;;;9.40;8.40;;;;;;;30.49;43.84;93150.81;2024176;71;20581;-76
2022/07/24 09:44:25;;;;;;;9.30;7.50;;;;;;;30.83;42.44;93156.38;2024259;71;20585;-76
2022/07/24 09:47:10;;;;;;;9.85;8.18;;;;;;;30.32;41.42;93153.09;2024268;71;20145;-76
2022/07/24 09:49:38;;;;;;;9.38;8.25;;;;;;;29.95;41.56;93149.66;2024246;71;20642;-76
2022/07/24 09:52:13;;;;;;;11.20;7.78;;;;;;;30.74;40.10;93152.09;2024364;71;20180;-76
2022/07/24 09:54:41;;;;;;;8.77;7.68;;;;;;;31.04;40.87;93144.59;2024223;71;20672;-77
2022/07/24 09:57:29;;;;;;;8.88;7.90;;;;;;;30.90;40.61;93141.81;2024085;71;20592;-76
2022/07/24 09:59:57;;;;;;;8.38;7.03;;;;;;;31.77;41.20;93140.91;2024225;71;20165;-76
2022/07/24 10:02:25;;;;;;;9.05;7.93;;;;;;;31.55;39.32;93141.91;2024212;71;20236;-76
2022/07/24 10:04:52;;;;;;;10.32;7.97;;;;;;;31.34;40.64;93135.59;2024167;71;20168;-76
2022/07/24 10:07:21;;;;;;;8.65;7.72;;;;;;;32.01;39.72;93134.09;2024180;71;20485;-76
2022/07/24 10:09:49;;;;;;;9.20;7.47;;;;;;;31.94;40.01;93129.84;2024259;71;20186;-77
2022/07/24 10:12:21;;;;;;;9.05;7.78;;;;;;;31.97;39.97;93139.97;2024060;71;20563;-77
2022/07/24 10:14:50;;;;;;;10.97;7.57;;;;;;;32.63;38.46;93131.06;2020642;71;20145;-77
2022/07/24 10:17:16;;;;;;;11.77;7.50;;;;;;;33.15;40.69;93125.84;2024110;71;20282;-77
2022/07/24 10:19:50;;;;;;;7.97;7.18;;;;;;;32.99;39.20;93126.84;2024156;71;20537;-77
2022/07/24 10:22:18;;;;;;;8.55;7.55;;;;;;;32.60;36.83;93123.81;2024166;71;20153;-77
2022/07/24 10:25:07;;;;;;;7.88;7.07;;;;;;;33.31;38.22;93125.56;2024105;71;20229;-77
2022/07/24 10:27:37;;;;;;;8.80;7.00;;;;;;;33.93;35.95;93112.69;2024029;71;20160;-77
2022/07/24 10:30:08;;;;;;;7.43;6.63;;;;;;;34.19;37.22;93120.91;2024248;71;20153;-77
2022/07/24 10:32:35;;;;;;;7.78;7.00;;;;;;;34.94;35.85;93114.81;2023936;71;20153;-77
2022/07/24 10:35:12;;;;;;;7.65;6.85;;;;;;;34.90;34.28;93110.50;2024146;71;20275;-77
2022/07/24 10:37:37;;;;;;;7.32;6.50;;;;;;;35.69;34.16;93109.22;2024006;71;20165;-77
2022/07/24 10:40:14;;;;;;;7.65;6.75;;;;;;;35.64;34.41;93103.47;2024108;71;20157;-77
2022/07/24 10:43:09;;;;;;;7.32;6.28;;;;;;;35.74;33.62;93108.34;2024110;71;20479;-76
2022/07/24 10:45:46;;;;;;;7.15;6.10;;;;;;;35.88;32.17;93090.38;2022753;71;20228;-75
2022/07/24 10:48:22;;;;;;;9.95;5.80;;;;;;;37.04;32.80;93100.06;2020389;71;20619;-76
2022/07/24 10:50:56;;;;;;;6.25;5.65;;;;;;;37.33;31.43;93088.06;2024142;71;20152;-76
2022/07/24 10:53:23;;;;;;;6.43;5.80;;;;;;;37.43;29.47;93087.00;2024173;71;20160;-75
2022/07/24 10:55:48;;;;;;;7.13;5.85;;;;;;;37.66;29.44;93087.63;2024140;71;20159;-76
2022/07/24 10:58:15;;;;;;;6.43;5.72;;;;;;;37.99;29.27;93093.09;2024091;71;20156;-75
2022/07/24 11:00:47;;;;;;;8.85;5.60;;;;;;;38.73;28.35;93093.91;2020634;71;20253;-77
2022/07/24 11:03:24;;;;;;;5.95;4.95;;;;;;;38.27;28.15;93081.75;2024204;71;20164;-75
2022/07/24 11:06:10;;;;;;;5.68;5.18;;;;;;;39.50;26.24;93083.44;2024286;71;20168;-75
2022/07/24 11:08:45;;;;;;;9.35;5.45;;;;;;;40.21;25.68;93065.53;2024113;71;20637;-75
2022/07/24 11:11:13;;;;;;;5.95;5.30;;;;;;;39.83;25.09;93074.59;2020530;71;20185;-76
2022/07/24 11:13:43;;;;;;;5.70;5.18;;;;;;;42.47;22.67;93068.19;2024206;71;20251;-75
2022/07/24 11:16:15;;;;;;;6.35;5.13;;;;;;;44.71;20.96;93080.91;2023901;71;20172;-76
2022/07/24 11:18:42;;;;;;;5.68;5.10;;;;;;;46.00;21.02;93078.34;2024014;71;20145;-76
2022/07/24 11:21:08;;;;;;;4.90;4.40;;;;;;;47.24;19.22;93072.47;2023959;71;20153;-77
2022/07/24 11:23:35;;;;;;;6.00;4.90;;;;;;;45.76;19.00;93063.59;2024060;71;20202;-76
2022/07/24 11:26:42;;;;;;;5.63;4.82;;;;;;;44.43;19.28;93065.63;2023964;71;20749;-78
2022/07/24 11:29:15;;;;;;;5.50;4.35;;;;;;;48.07;18.62;93056.53;2024075;71;20159;-79
2022/07/24 11:31:46;;;;;;;6.28;4.47;;;;;;;49.58;17.32;93062.31;2024044;71;20229;-78